Time;durP1;ratioP1;P1;durP2;ratioP2;P2;SDS_P1;SDS_P2;PMS_P1;PMS_P2;Temp;Humidity;BMP_temperature;BMP_pressure;BME280_temperature;BME280_humidity;BME280_pressure;Samples;Min_cycle;Max_cycle;Signal;HPM_P1;HPM_P2
2023/12/28 00:00:34;;;;;;;2.30;1.33;;;;;;;8.58;49.22;100725.59;5010349;28;20052;-73
2023/12/28 00:03:02;;;;;;;2.55;1.50;;;;;;;8.59;49.36;100721.84;5022729;28;20103;-73
2023/12/28 00:05:30;;;;;;;2.90;1.40;;;;;;;8.62;49.88;100723.47;4997939;28;20038;-73
2023/12/28 00:07:58;;;;;;;2.08;1.30;;;;;;;8.64;49.81;100722.34;5017999;28;20084;-73
2023/12/28 00:10:28;;;;;;;2.45;1.27;;;;;;;8.66;49.55;100727.69;5019177;28;20459;-73
2023/12/28 00:12:56;;;;;;;2.60;1.40;;;;;;;8.68;50.11;100725.66;5015396;28;20242;-73
2023/12/28 00:15:24;;;;;;;3.83;1.30;;;;;;;8.70;49.88;100732.75;5017389;28;20062;-73
2023/12/28 00:17:53;;;;;;;2.45;1.27;;;;;;;8.74;49.82;100727.91;5024985;28;20095;-73
2023/12/28 00:20:21;;;;;;;2.40;1.27;;;;;;;8.73;49.92;100742.56;5024485;28;20132;-73
2023/12/28 00:22:50;;;;;;;2.30;1.40;;;;;;;8.76;49.82;100744.13;5018311;28;20083;-73
2023/12/28 00:25:18;;;;;;;3.35;1.70;;;;;;;8.77;50.03;100716.72;5009954;28;20045;-73
2023/12/28 00:27:46;;;;;;;2.60;1.50;;;;;;;8.79;49.81;100727.53;5021725;28;20586;-73
2023/12/28 00:30:17;;;;;;;2.42;1.42;;;;;;;8.81;50.12;100734.59;5005617;28;20564;-73
2023/12/28 00:32:45;;;;;;;3.78;1.65;;;;;;;8.83;49.84;100734.47;5020713;28;20558;-73
2023/12/28 00:35:15;;;;;;;3.10;1.30;;;;;;;8.85;49.83;100727.88;5005478;28;20632;-73
2023/12/28 00:40:17;;;;;;;2.28;1.40;;;;;;;8.87;49.90;100736.81;4947490;28;20522;-74
2023/12/28 00:42:45;;;;;;;2.30;1.42;;;;;;;8.88;50.15;100746.75;4947952;28;20058;-72
2023/12/28 00:45:13;;;;;;;3.05;1.40;;;;;;;8.90;50.03;100765.72;4926329;29;20452;-74
2023/12/28 00:47:42;;;;;;;2.47;1.20;;;;;;;8.91;50.24;100759.28;4949770;28;20043;-74
2023/12/28 00:50:14;;;;;;;2.17;1.23;;;;;;;8.92;50.22;100759.13;4949909;28;20039;-74
2023/12/28 00:52:44;;;;;;;2.90;1.30;;;;;;;8.94;50.32;100767.19;4956066;28;20047;-74
2023/12/28 00:55:13;;;;;;;2.47;1.40;;;;;;;8.94;49.99;100762.59;4945383;28;20051;-74
2023/12/28 00:57:41;;;;;;;2.22;1.35;;;;;;;8.95;50.42;100760.75;4963135;28;20050;-74
2023/12/28 01:00:10;;;;;;;2.83;1.40;;;;;;;8.97;50.34;100758.78;4958101;28;20471;-74
2023/12/28 01:02:38;;;;;;;2.33;1.33;;;;;;;8.97;50.41;100758.78;4953029;28;20058;-73
2023/12/28 01:05:07;;;;;;;2.35;1.40;;;;;;;8.99;50.51;100764.97;4969177;28;20075;-74
2023/12/28 01:07:35;;;;;;;2.50;1.50;;;;;;;8.98;50.33;100755.06;4972302;28;20134;-74
2023/12/28 01:10:05;;;;;;;2.40;1.25;;;;;;;9.00;50.35;100770.28;4968362;28;20502;-74
2023/12/28 01:12:34;;;;;;;2.90;1.67;;;;;;;8.99;50.46;100781.34;4954642;28;20066;-73
2023/12/28 01:15:02;;;;;;;2.70;1.38;;;;;;;9.00;50.80;100780.38;4964567;28;20078;-74
2023/12/28 01:17:30;;;;;;;2.22;1.50;;;;;;;9.00;50.77;100788.56;4960418;28;20043;-74
2023/12/28 01:19:58;;;;;;;3.80;1.58;;;;;;;9.00;50.51;100788.56;4977415;28;20043;-74
2023/12/28 01:22:26;;;;;;;2.05;1.27;;;;;;;9.00;50.80;100785.81;4969114;28;20677;-74
2023/12/28 01:24:54;;;;;;;3.03;1.70;;;;;;;9.00;50.34;100781.19;4955557;28;20241;-74
2023/12/28 01:27:23;;;;;;;2.92;1.60;;;;;;;9.03;50.40;100777.38;4969439;28;20741;-74
2023/12/28 01:29:51;;;;;;;3.17;1.40;;;;;;;9.01;50.49;100788.41;4968272;28;20340;-74
2023/12/28 01:32:20;;;;;;;3.13;1.60;;;;;;;9.01;50.98;100798.44;4958167;28;20510;-74
2023/12/28 01:34:48;;;;;;;3.33;1.80;;;;;;;9.02;50.82;100802.91;4953521;28;20452;-74
2023/12/28 01:37:16;;;;;;;3.15;1.75;;;;;;;9.01;50.76;100799.31;4975740;28;20053;-74
2023/12/28 01:39:43;;;;;;;2.63;1.60;;;;;;;9.02;50.40;100802.91;4946968;28;20498;-74
2023/12/28 01:42:11;;;;;;;3.00;1.70;;;;;;;9.01;50.76;100812.97;4959499;28;20051;-74
2023/12/28 01:44:41;;;;;;;3.00;1.70;;;;;;;9.03;51.09;100805.53;4962286;28;20356;-72
2023/12/28 01:47:09;;;;;;;3.55;1.48;;;;;;;9.03;50.64;100827.38;4970013;28;20046;-74
2023/12/28 01:49:38;;;;;;;2.70;1.50;;;;;;;9.03;50.60;100821.03;4947637;28;20385;-73
2023/12/28 01:52:07;;;;;;;3.38;1.60;;;;;;;9.03;51.02;100824.66;4960424;28;20482;-74
2023/12/28 01:54:37;;;;;;;3.05;1.58;;;;;;;9.04;50.62;100825.50;4953595;28;20043;-74
2023/12/28 01:57:06;;;;;;;2.53;1.38;;;;;;;9.03;50.81;100826.50;4956905;28;20159;-74
2023/12/28 01:59:34;;;;;;;2.90;1.40;;;;;;;9.04;50.68;100830.97;4948849;28;20152;-73
2023/12/28 02:02:04;;;;;;;2.67;1.70;;;;;;;9.05;50.72;100814.47;4965443;28;20050;-73
2023/12/28 02:04:32;;;;;;;2.45;1.50;;;;;;;9.04;50.55;100830.97;4942755;29;20052;-73
2023/12/28 02:07:02;;;;;;;2.53;1.40;;;;;;;9.05;51.10;100819.94;4946229;28;20043;-74
2023/12/28 02:09:30;;;;;;;2.42;1.35;;;;;;;9.05;50.65;100827.25;4933238;28;20139;-73
2023/12/28 02:11:58;;;;;;;2.78;1.50;;;;;;;9.06;50.68;100834.44;4950687;28;20130;-74
2023/12/28 02:14:26;;;;;;;2.20;1.30;;;;;;;9.05;51.21;100830.84;4950902;28;20114;-73
2023/12/28 02:17:01;;;;;;;2.67;1.35;;;;;;;9.07;51.16;100826.16;4958040;28;20074;-72
2023/12/28 02:19:41;;;;;;;3.20;1.40;;;;;;;9.08;50.68;100837.94;4952963;28;20046;-73
2023/12/28 02:22:10;;;;;;;1.83;1.27;;;;;;;9.07;51.17;100830.72;4951189;28;20058;-74
2023/12/28 02:25:08;;;;;;;2.33;1.30;;;;;;;9.03;51.44;100821.91;4946879;28;20110;-73
2023/12/28 02:27:39;;;;;;;3.33;2.00;;;;;;;9.07;50.83;100828.00;4927994;28;20486;-72
2023/12/28 02:30:08;;;;;;;2.22;1.50;;;;;;;9.07;51.15;100831.59;4953928;28;20046;-74
2023/12/28 02:32:52;;;;;;;3.00;1.60;;;;;;;9.09;50.88;100817.81;4966888;28;20065;-73
2023/12/28 02:35:25;;;;;;;2.65;1.45;;;;;;;9.08;51.29;100816.94;4948877;28;20138;-73
2023/12/28 02:37:59;;;;;;;2.50;1.48;;;;;;;9.10;51.33;100828.59;4950322;28;20130;-73
2023/12/28 02:40:31;;;;;;;2.90;1.40;;;;;;;9.09;50.94;100823.25;4951302;28;20050;-73
2023/12/28 02:42:59;;;;;;;3.60;1.70;;;;;;;9.08;51.43;100824.28;4951767;28;20043;-73
2023/12/28 02:45:26;;;;;;;3.53;1.60;;;;;;;9.09;51.27;100826.00;4955191;28;20420;-74
2023/12/28 02:47:54;;;;;;;3.58;1.90;;;;;;;9.08;50.92;100816.94;4960422;28;20110;-74
2023/12/28 02:50:23;;;;;;;3.40;1.85;;;;;;;9.10;51.08;100822.28;4955610;28;20077;-74
2023/12/28 02:52:51;;;;;;;5.55;2.03;;;;;;;9.08;51.49;100819.66;4951345;28;20062;-74
2023/12/28 02:55:19;;;;;;;3.08;1.80;;;;;;;9.09;51.21;100826.84;4965265;28;20044;-74
2023/12/28 02:57:48;;;;;;;3.08;1.60;;;;;;;9.12;51.16;100823.03;4946876;28;20053;-74
2023/12/28 03:00:16;;;;;;;2.80;1.48;;;;;;;9.11;51.43;100818.56;4952505;28;20070;-73
2023/12/28 03:02:45;;;;;;;2.20;1.50;;;;;;;9.12;51.07;100822.16;4954734;28;20113;-74
2023/12/28 03:05:13;;;;;;;3.80;1.40;;;;;;;9.12;51.23;100812.09;4950527;28;20141;-74
2023/12/28 03:07:42;;;;;;;3.25;1.60;;;;;;;9.13;51.41;100808.38;4951084;28;20519;-75
2023/12/28 03:10:11;;;;;;;2.78;1.60;;;;;;;9.13;51.28;100810.25;4952108;28;20478;-74
2023/12/28 03:12:42;;;;;;;2.83;1.58;;;;;;;9.14;51.55;100817.44;4964837;28;20047;-75
2023/12/28 03:15:11;;;;;;;2.50;1.50;;;;;;;9.16;51.04;100821.78;4966162;28;20729;-74
2023/12/28 03:17:40;;;;;;;3.03;1.70;;;;;;;9.15;51.08;100816.44;4949392;28;20534;-74
2023/12/28 03:20:10;;;;;;;2.42;1.52;;;;;;;9.16;51.41;100818.19;4955421;28;20523;-73
2023/12/28 03:22:38;;;;;;;3.03;1.48;;;;;;;9.16;51.45;100818.19;4953631;28;20047;-74
2023/12/28 03:25:06;;;;;;;3.20;1.40;;;;;;;9.17;51.52;100826.22;4967899;28;20070;-74
2023/12/28 03:27:34;;;;;;;2.85;1.67;;;;;;;9.18;51.05;100818.91;4952384;28;20057;-72
2023/12/28 03:30:02;;;;;;;3.10;1.52;;;;;;;9.18;51.78;100811.59;4963643;28;20049;-74
2023/12/28 03:32:33;;;;;;;2.65;1.50;;;;;;;9.20;51.72;100825.13;4954490;28;20043;-74
2023/12/28 03:35:01;;;;;;;3.38;1.60;;;;;;;9.18;51.37;100819.78;4950138;28;20057;-73
2023/12/28 03:37:29;;;;;;;3.13;1.92;;;;;;;9.19;51.54;100820.66;4953096;28;20046;-73
2023/12/28 03:39:57;;;;;;;3.35;1.58;;;;;;;9.20;51.30;100816.94;4954721;28;20047;-72
2023/12/28 03:42:25;;;;;;;2.05;1.30;;;;;;;9.21;51.57;100815.94;4952883;28;20046;-73
2023/12/28 03:44:53;;;;;;;3.20;1.52;;;;;;;9.21;51.55;100814.06;4948861;28;20055;-74
2023/12/28 03:47:21;;;;;;;3.22;1.90;;;;;;;9.21;51.26;100811.34;4945611;28;20483;-74
2023/12/28 03:49:50;;;;;;;4.22;1.92;;;;;;;9.24;51.21;100805.63;4944158;28;20515;-74
2023/12/28 03:52:18;;;;;;;3.28;1.55;;;;;;;9.23;51.34;100803.03;4964818;28;20130;-74
2023/12/28 03:54:46;;;;;;;3.42;1.88;;;;;;;9.24;51.53;100802.03;4956956;28;20106;-74
2023/12/28 03:57:14;;;;;;;4.20;1.80;;;;;;;9.24;51.53;100799.31;4950227;28;20146;-74
2023/12/28 03:59:42;;;;;;;3.70;1.48;;;;;;;9.25;51.47;100785.50;4958325;28;20050;-73
2023/12/28 04:02:10;;;;;;;3.00;1.50;;;;;;;9.26;51.31;100791.84;4954338;28;20130;-74
2023/12/28 04:04:39;;;;;;;3.45;1.92;;;;;;;9.26;51.49;100797.28;4950731;28;20043;-74
2023/12/28 04:07:09;;;;;;;3.10;1.60;;;;;;;9.28;51.49;100819.88;4962402;28;20049;-74
2023/12/28 04:09:37;;;;;;;2.45;1.83;;;;;;;9.28;51.58;100815.31;4949594;28;20082;-74
2023/12/28 04:12:05;;;;;;;2.85;1.50;;;;;;;9.28;51.23;100815.31;4948408;28;20582;-74
2023/12/28 04:14:33;;;;;;;2.78;1.70;;;;;;;9.28;51.35;100795.31;4943796;28;20047;-74
2023/12/28 04:17:01;;;;;;;2.90;1.33;;;;;;;9.30;51.20;100806.97;4961911;28;20574;-73
2023/12/28 04:19:29;;;;;;;2.97;1.55;;;;;;;9.29;51.29;100806.13;4952586;28;20046;-74
2023/12/28 04:22:00;;;;;;;2.78;1.55;;;;;;;9.30;51.40;100804.25;4941219;28;20153;-74
2023/12/28 04:24:29;;;;;;;2.53;1.33;;;;;;;9.32;50.98;100813.19;4943592;28;20517;-74
2023/12/28 04:26:57;;;;;;;2.60;1.40;;;;;;;9.30;51.29;100802.41;4955406;28;20518;-74
2023/12/28 04:29:25;;;;;;;2.85;1.55;;;;;;;9.30;51.36;100788.75;4946407;28;20054;-74
2023/12/28 04:31:54;;;;;;;2.55;1.58;;;;;;;9.32;51.32;100802.28;4948149;28;20395;-74
2023/12/28 04:34:22;;;;;;;2.50;1.40;;;;;;;9.31;51.40;100804.13;4955142;28;20755;-74
2023/12/28 04:36:52;;;;;;;2.78;1.45;;;;;;;9.31;51.38;100800.53;4968963;28;20047;-74
2023/12/28 04:39:20;;;;;;;2.25;1.17;;;;;;;9.32;51.37;100816.78;4967003;28;20043;-74
2023/12/28 04:41:50;;;;;;;3.40;1.30;;;;;;;9.34;50.82;100822.97;4961104;28;20051;-74
2023/12/28 04:44:17;;;;;;;2.67;1.50;;;;;;;9.32;51.24;100805.88;4948021;28;20690;-73
2023/12/28 04:46:46;;;;;;;2.45;1.50;;;;;;;9.33;51.13;100793.91;4947540;29;20074;-74
2023/12/28 04:49:14;;;;;;;2.38;1.40;;;;;;;9.34;50.66;100811.19;4950542;28;20039;-74
2023/12/28 04:51:45;;;;;;;2.38;1.35;;;;;;;9.35;51.25;100811.06;4949067;28;20570;-74
2023/12/28 04:54:13;;;;;;;2.25;1.50;;;;;;;9.34;51.33;100824.84;4952552;28;20411;-74
2023/12/28 04:56:42;;;;;;;2.33;1.33;;;;;;;9.35;51.09;100827.44;4974993;28;20047;-74
2023/12/28 04:59:11;;;;;;;2.67;1.67;;;;;;;9.36;50.68;100836.50;4949934;28;20047;-74
2023/12/28 05:01:42;;;;;;;2.78;1.38;;;;;;;9.36;50.67;100825.59;4943410;28;20452;-75
2023/12/28 05:04:10;;;;;;;2.60;1.60;;;;;;;9.34;51.08;100816.66;4924498;28;20233;-74
2023/12/28 05:06:44;;;;;;;5.20;1.50;;;;;;;9.34;50.98;100824.84;4965403;28;20559;-74
2023/12/28 05:09:14;;;;;;;2.58;1.23;;;;;;;9.33;50.86;100834.88;4952041;28;20050;-77
2023/12/28 05:11:42;;;;;;;3.20;1.40;;;;;;;9.33;50.43;100829.44;4948404;28;20138;-74
2023/12/28 05:14:11;;;;;;;3.75;1.48;;;;;;;9.35;50.95;100821.13;4945380;28;20200;-74
2023/12/28 05:16:39;;;;;;;2.85;1.50;;;;;;;9.34;50.96;100824.84;4942438;29;20452;-74
2023/12/28 05:19:08;;;;;;;2.58;1.30;;;;;;;9.33;51.04;100825.84;4960330;28;20114;-74
2023/12/28 05:21:37;;;;;;;3.55;1.50;;;;;;;9.33;50.95;100839.50;4942569;29;20040;-75
2023/12/28 05:24:05;;;;;;;2.35;1.52;;;;;;;9.32;50.44;100841.38;4927952;28;20046;-74
2023/12/28 05:26:33;;;;;;;2.58;1.40;;;;;;;9.32;50.64;100840.50;4930590;28;20048;-73
2023/12/28 05:29:01;;;;;;;4.72;1.70;;;;;;;9.32;50.79;100840.50;4939476;28;20593;-73
2023/12/28 05:31:30;;;;;;;2.88;1.27;;;;;;;9.32;50.76;100845.97;4948222;28;20047;-73
2023/12/28 05:33:59;;;;;;;3.53;1.45;;;;;;;9.30;50.63;100846.09;4949045;28;20051;-73
2023/12/28 05:36:27;;;;;;;2.70;1.50;;;;;;;9.31;50.59;100846.97;4951059;28;20095;-73
2023/12/28 05:38:55;;;;;;;3.17;1.70;;;;;;;9.30;50.56;100850.69;4957659;28;20069;-74
2023/12/28 05:41:23;;;;;;;2.55;1.50;;;;;;;9.30;50.38;100861.59;4953704;28;20043;-74
2023/12/28 05:43:50;;;;;;;2.67;1.33;;;;;;;9.30;50.64;100861.59;4950759;28;20070;-73
2023/12/28 05:46:18;;;;;;;2.58;1.30;;;;;;;9.30;50.17;100856.16;4949368;28;20050;-73
2023/12/28 05:48:48;;;;;;;3.17;1.50;;;;;;;9.31;50.57;100853.28;4947459;29;20412;-73
2023/12/28 05:51:16;;;;;;;2.33;1.50;;;;;;;9.30;50.51;100856.16;4934708;28;20364;-74
2023/12/28 05:53:44;;;;;;;3.58;1.50;;;;;;;9.30;50.55;100870.66;4960566;28;20059;-74
2023/12/28 05:56:12;;;;;;;3.67;1.55;;;;;;;9.30;50.51;100865.22;4955086;28;20094;-77
2023/12/28 05:58:40;;;;;;;3.50;1.40;;;;;;;9.30;50.58;100867.94;4947438;28;20055;-77
2023/12/28 06:01:08;;;;;;;3.33;1.50;;;;;;;9.30;50.39;100873.41;4947028;28;20155;-77
2023/12/28 06:03:36;;;;;;;3.17;1.80;;;;;;;9.30;50.37;100870.66;4952916;28;20131;-77
2023/12/28 06:06:06;;;;;;;3.30;1.60;;;;;;;9.32;50.07;100878.75;4951684;28;20039;-77
2023/12/28 06:08:34;;;;;;;2.15;1.27;;;;;;;9.32;50.23;100876.00;4952333;28;20124;-77
2023/12/28 06:11:02;;;;;;;3.05;1.35;;;;;;;9.32;50.42;100881.47;4950262;28;20079;-77
2023/12/28 06:13:30;;;;;;;2.38;1.25;;;;;;;9.32;50.34;100887.81;4950463;28;20082;-77
2023/12/28 06:15:58;;;;;;;3.22;1.63;;;;;;;9.31;50.06;100872.41;4951282;28;20050;-77
2023/12/28 06:18:26;;;;;;;3.15;1.40;;;;;;;9.32;49.92;100890.53;4966343;28;20138;-78
2023/12/28 06:20:55;;;;;;;2.70;1.40;;;;;;;9.33;50.20;100884.06;4949853;28;20109;-77
2023/12/28 06:23:24;;;;;;;3.40;1.50;;;;;;;9.35;50.29;100892.13;4936498;29;20135;-77
2023/12/28 06:25:54;;;;;;;4.75;2.22;;;;;;;9.33;50.05;100886.78;4940439;28;20059;-77
2023/12/28 06:28:22;;;;;;;3.30;1.30;;;;;;;9.34;50.12;100880.34;4951798;28;20101;-77
2023/12/28 06:30:51;;;;;;;2.22;1.38;;;;;;;9.36;50.20;100891.13;4945278;28;20039;-77
2023/12/28 06:33:19;;;;;;;2.75;1.65;;;;;;;9.34;50.13;100885.78;4962406;28;20055;-77
2023/12/28 06:35:47;;;;;;;2.33;1.30;;;;;;;9.35;49.84;100895.72;4951957;28;20154;-77
2023/12/28 06:38:15;;;;;;;3.10;1.30;;;;;;;9.37;49.90;100895.59;4950047;28;20110;-77
2023/12/28 06:40:44;;;;;;;3.10;1.40;;;;;;;9.37;49.97;100892.88;4947045;28;20048;-77
2023/12/28 06:43:12;;;;;;;2.80;1.45;;;;;;;9.37;50.11;100898.34;4959773;28;20497;-78
2023/12/28 06:45:40;;;;;;;2.72;1.50;;;;;;;9.38;49.89;100891.88;4947038;28;20063;-77
2023/12/28 06:48:08;;;;;;;3.00;1.67;;;;;;;9.38;49.97;100891.88;4932553;28;20047;-77
2023/12/28 06:50:36;;;;;;;2.58;1.33;;;;;;;9.38;50.10;100883.69;4941029;29;20487;-78
2023/12/28 06:53:04;;;;;;;2.92;1.30;;;;;;;9.39;50.05;100888.19;4950564;29;20059;-77
2023/12/28 06:55:32;;;;;;;4.15;1.50;;;;;;;9.40;50.01;100892.66;4944249;29;20043;-77
2023/12/28 06:58:03;;;;;;;3.72;1.45;;;;;;;9.41;49.55;100884.31;4947113;28;20051;-77
2023/12/28 07:00:31;;;;;;;2.47;1.38;;;;;;;9.40;49.69;100882.63;4939434;29;20501;-77
2023/12/28 07:02:59;;;;;;;3.13;1.30;;;;;;;9.41;49.59;100875.28;4936403;29;20103;-77
2023/12/28 07:05:27;;;;;;;2.13;1.13;;;;;;;9.42;49.50;100874.25;4930905;28;20151;-77
2023/12/28 07:07:55;;;;;;;3.22;1.40;;;;;;;9.43;49.63;100886.94;4936860;28;20052;-78
2023/12/28 07:10:24;;;;;;;3.58;1.55;;;;;;;9.44;49.70;100889.53;4949652;28;20043;-77
2023/12/28 07:12:52;;;;;;;2.97;1.38;;;;;;;9.43;49.70;100874.16;4961690;28;20117;-77
2023/12/28 07:15:22;;;;;;;3.33;1.35;;;;;;;9.46;49.77;100883.97;4968913;28;20533;-77
2023/12/28 07:17:50;;;;;;;3.17;1.40;;;;;;;9.45;49.82;100894.03;4952465;28;20035;-77
2023/12/28 07:20:18;;;;;;;3.00;1.50;;;;;;;9.46;49.55;100903.09;4949767;28;20039;-77
2023/12/28 07:22:46;;;;;;;2.00;1.25;;;;;;;9.48;49.85;100917.50;4952467;28;20059;-77
2023/12/28 07:25:13;;;;;;;3.03;1.45;;;;;;;9.49;49.57;100912.91;4946848;28;20075;-77
2023/12/28 07:27:41;;;;;;;4.05;1.73;;;;;;;9.49;49.88;100908.31;4951125;28;20098;-77
2023/12/28 07:30:10;;;;;;;2.80;1.38;;;;;;;9.50;49.73;100911.88;4949078;28;20039;-77
2023/12/28 07:32:40;;;;;;;3.92;1.45;;;;;;;9.51;49.27;100909.03;4950968;28;20060;-77
2023/12/28 07:35:08;;;;;;;5.20;1.40;;;;;;;9.50;49.31;100914.59;4947943;28;20050;-77
2023/12/28 07:37:37;;;;;;;3.45;1.38;;;;;;;9.50;49.70;100910.03;4951423;28;20079;-77
2023/12/28 07:40:05;;;;;;;2.28;1.23;;;;;;;9.51;49.72;100909.03;4947827;28;20082;-77
2023/12/28 07:42:33;;;;;;;3.40;1.63;;;;;;;9.50;49.31;100907.28;4946448;28;20427;-76
2023/12/28 07:45:02;;;;;;;2.30;1.30;;;;;;;9.53;49.16;100925.28;4944147;28;20039;-77
2023/12/28 07:47:30;;;;;;;3.42;1.30;;;;;;;9.53;49.64;100925.28;4948967;28;20094;-77
2023/12/28 07:50:00;;;;;;;3.47;1.50;;;;;;;9.55;49.25;100945.19;4948049;28;20077;-77
2023/12/28 07:52:28;;;;;;;3.20;1.45;;;;;;;9.54;49.43;100946.16;4949609;28;20051;-77
2023/12/28 07:54:56;;;;;;;3.85;1.30;;;;;;;9.54;49.16;100941.56;4960979;28;20543;-76
2023/12/28 07:57:23;;;;;;;4.65;1.60;;;;;;;9.54;49.18;100941.56;4964801;28;20059;-79
2023/12/28 07:59:57;;;;;;;3.05;1.30;;;;;;;9.56;48.88;100941.44;4935872;29;20387;-79
2023/12/28 08:02:26;;;;;;;3.33;1.42;;;;;;;9.55;48.98;100948.78;4946958;28;20035;-79
2023/12/28 08:04:54;;;;;;;2.63;1.30;;;;;;;9.56;49.31;100949.66;4955081;28;20063;-78
2023/12/28 08:07:24;;;;;;;5.15;1.48;;;;;;;9.57;49.09;100949.53;4978147;28;20109;-79
2023/12/28 08:09:53;;;;;;;2.08;1.13;;;;;;;9.56;48.97;100946.91;4954682;28;20038;-76
2023/12/28 08:12:22;;;;;;;2.70;1.13;;;;;;;9.56;49.22;100945.06;4967946;28;20058;-79
2023/12/28 08:14:50;;;;;;;3.08;1.35;;;;;;;9.56;49.08;100945.06;4957491;29;20059;-79
2023/12/28 08:17:18;;;;;;;2.47;1.40;;;;;;;9.56;48.82;100946.91;4955728;28;20047;-78
2023/12/28 08:19:46;;;;;;;3.83;1.70;;;;;;;9.56;48.78;100941.44;4957698;28;20040;-79
2023/12/28 08:22:14;;;;;;;3.03;1.35;;;;;;;9.56;49.00;100941.44;4962094;28;20043;-79
2023/12/28 08:24:44;;;;;;;2.55;1.38;;;;;;;9.57;48.65;100937.72;4959486;28;20094;-79
2023/12/28 08:27:12;;;;;;;3.50;1.48;;;;;;;9.55;48.69;100934.25;4971628;28;20173;-80
2023/12/28 08:29:41;;;;;;;3.15;1.52;;;;;;;9.56;48.93;100942.31;4957064;28;20050;-80
2023/12/28 08:32:10;;;;;;;5.05;1.60;;;;;;;9.56;48.61;100939.59;4940717;29;20514;-79
2023/12/28 08:34:39;;;;;;;3.35;1.50;;;;;;;9.56;48.71;100936.00;4941312;28;20043;-79
2023/12/28 08:37:07;;;;;;;4.40;1.50;;;;;;;9.55;48.61;100951.50;4969151;28;20496;-79
2023/12/28 08:39:35;;;;;;;2.90;1.58;;;;;;;9.55;48.84;100950.63;4970609;28;20032;-79
2023/12/28 08:42:05;;;;;;;4.07;1.50;;;;;;;9.58;48.82;100955.84;4958195;28;20043;-79
2023/12/28 08:44:34;;;;;;;4.20;1.80;;;;;;;9.55;48.98;100958.84;4960848;28;20047;-79
2023/12/28 08:47:03;;;;;;;4.47;1.70;;;;;;;9.55;48.98;100967.91;4950492;28;20419;-80
2023/12/28 08:49:33;;;;;;;3.38;1.30;;;;;;;9.56;48.86;100966.91;4953892;28;20327;-80
2023/12/28 08:52:01;;;;;;;4.15;1.50;;;;;;;9.55;48.60;100967.91;4967556;28;20479;-79
2023/12/28 08:54:29;;;;;;;2.42;1.50;;;;;;;9.56;48.90;100972.38;4949378;28;20522;-79
2023/12/28 08:56:57;;;;;;;3.08;1.30;;;;;;;9.56;48.66;100961.44;4954611;28;20070;-80
2023/12/28 08:59:28;;;;;;;2.83;1.45;;;;;;;9.57;48.92;100963.19;4954118;29;20051;-80
2023/12/28 09:01:56;;;;;;;3.65;1.38;;;;;;;9.57;48.47;100973.25;4952177;28;20051;-79
2023/12/28 09:04:24;;;;;;;3.35;1.40;;;;;;;9.57;48.86;100971.38;4960349;28;20043;-80
2023/12/28 09:06:53;;;;;;;2.63;1.30;;;;;;;9.57;49.06;100971.38;4957880;28;20054;-79
2023/12/28 09:09:21;;;;;;;4.30;1.42;;;;;;;9.58;48.71;100964.03;4973312;28;20058;-79
2023/12/28 09:11:49;;;;;;;2.53;1.45;;;;;;;9.59;48.58;100979.44;4959308;28;20462;-80
2023/12/28 09:14:18;;;;;;;3.05;1.40;;;;;;;9.59;48.43;100971.25;4949087;28;20145;-80
2023/12/28 09:16:49;;;;;;;3.17;1.40;;;;;;;9.62;48.16;100971.00;4941870;28;20043;-79
2023/12/28 09:19:17;;;;;;;2.97;1.60;;;;;;;9.59;48.71;100971.25;4957271;28;20077;-80
2023/12/28 09:21:45;;;;;;;4.63;1.70;;;;;;;9.61;48.73;100975.59;4979736;28;20444;-79
2023/12/28 09:24:14;;;;;;;3.90;1.40;;;;;;;9.60;48.85;100973.84;4944270;28;20044;-78
2023/12/28 09:26:42;;;;;;;4.82;1.50;;;;;;;9.63;48.63;100980.94;4958628;28;20098;-79
2023/12/28 09:29:10;;;;;;;3.85;1.63;;;;;;;9.63;49.09;100980.94;4959388;28;20439;-80
2023/12/28 09:31:38;;;;;;;4.05;1.52;;;;;;;9.63;49.08;100979.06;4962069;28;20054;-80
2023/12/28 09:34:08;;;;;;;4.80;1.35;;;;;;;9.66;48.75;100980.69;4952234;28;20051;-79
2023/12/28 09:36:36;;;;;;;4.32;2.47;;;;;;;9.66;48.49;100972.50;4956507;28;20066;-80
2023/12/28 09:39:06;;;;;;;3.85;1.58;;;;;;;9.67;49.01;100990.59;4971331;28;20141;-79
2023/12/28 09:41:41;;;;;;;5.53;1.50;;;;;;;9.71;48.79;100992.97;4948083;28;20103;-79
2023/12/28 09:44:12;;;;;;;3.10;1.50;;;;;;;9.72;48.97;100991.13;4958232;29;20054;-80
2023/12/28 09:46:42;;;;;;;4.72;1.30;;;;;;;9.75;49.10;100996.31;4964159;28;20043;-79
2023/12/28 09:49:13;;;;;;;4.05;1.73;;;;;;;9.79;48.84;100998.69;4961874;28;20125;-76
2023/12/28 09:51:43;;;;;;;5.85;1.52;;;;;;;9.81;49.13;100993.09;4960066;28;20062;-79
2023/12/28 09:54:17;;;;;;;4.82;2.03;;;;;;;9.85;49.32;100986.38;4953674;28;20035;-79
2023/12/28 09:56:46;;;;;;;5.25;1.70;;;;;;;9.91;49.25;100969.44;4961867;28;20066;-78
2023/12/28 09:59:17;;;;;;;3.83;1.48;;;;;;;9.96;49.10;100989.09;4967721;28;20054;-79
2023/12/28 10:01:48;;;;;;;4.35;1.33;;;;;;;10.01;49.04;100975.91;4978439;28;20526;-79
2023/12/28 10:04:17;;;;;;;5.18;1.65;;;;;;;10.05;48.95;100980.13;4962432;28;20043;-79
2023/12/28 10:06:46;;;;;;;2.22;1.10;;;;;;;10.09;49.22;100975.25;4965483;28;20054;-79
2023/12/28 10:09:14;;;;;;;4.68;1.60;;;;;;;10.12;48.69;100970.41;4959092;28;20122;-79
2023/12/28 10:11:42;;;;;;;4.65;1.60;;;;;;;10.17;48.69;100976.34;4955389;28;20047;-79
2023/12/28 10:14:10;;;;;;;3.03;1.45;;;;;;;10.21;48.54;100975.09;4962365;28;20069;-79
2023/12/28 10:16:41;;;;;;;4.32;1.27;;;;;;;10.28;48.09;100971.84;4976809;28;20548;-79
2023/12/28 10:19:10;;;;;;;3.95;1.33;;;;;;;10.29;48.79;100974.47;4974582;28;20055;-79
2023/12/28 10:21:43;;;;;;;5.55;1.60;;;;;;;10.35;48.23;100971.19;4954630;28;20047;-79
2023/12/28 10:24:11;;;;;;;2.97;1.40;;;;;;;10.38;48.38;100964.59;4956783;28;20043;-78
2023/12/28 10:26:40;;;;;;;6.53;1.50;;;;;;;10.42;48.41;100968.78;4956536;28;20074;-79
2023/12/28 10:29:08;;;;;;;3.92;1.30;;;;;;;10.44;48.22;100964.06;4951323;28;20058;-79
2023/12/28 10:31:37;;;;;;;2.78;1.52;;;;;;;10.47;48.01;100970.16;4955874;28;20043;-79
2023/12/28 10:34:05;;;;;;;4.97;1.83;;;;;;;10.51;47.99;100981.69;4956583;28;20156;-79
2023/12/28 10:36:36;;;;;;;2.83;1.38;;;;;;;10.56;47.81;100984.97;4957713;28;20056;-79
2023/12/28 10:39:06;;;;;;;5.00;1.50;;;;;;;10.62;47.84;100986.28;4982371;28;20073;-79
2023/12/28 10:41:37;;;;;;;6.35;1.48;;;;;;;10.64;47.71;100987.91;4968431;28;20047;-79
2023/12/28 10:44:06;;;;;;;5.43;1.50;;;;;;;10.66;47.47;100980.41;4968249;28;20043;-79
2023/12/28 10:46:42;;;;;;;4.87;1.50;;;;;;;10.67;47.22;100975.81;4949651;28;20048;-79
2023/12/28 10:49:12;;;;;;;4.22;1.17;;;;;;;10.69;47.60;100971.94;4943112;28;20055;-79
2023/12/28 10:51:43;;;;;;;4.50;1.23;;;;;;;10.71;47.77;100978.16;4956806;28;20055;-79
2023/12/28 10:54:24;;;;;;;3.38;1.23;;;;;;;10.73;46.71;100965.19;4954774;29;20387;-79
2023/12/28 10:57:00;;;;;;;4.28;1.42;;;;;;;10.75;46.71;100970.53;4951693;28;20145;-79
2023/12/28 10:59:40;;;;;;;3.80;1.25;;;;;;;10.75;46.61;100976.00;4971825;28;20043;-79
2023/12/28 11:02:16;;;;;;;3.65;1.20;;;;;;;10.74;46.89;100969.66;4973169;28;20380;-79
2023/12/28 11:04:48;;;;;;;5.10;1.92;;;;;;;10.75;47.20;100965.94;4973405;28;20071;-78
2023/12/28 11:07:19;;;;;;;4.88;1.40;;;;;;;10.73;47.30;100964.34;4976162;28;25487;-79
2023/12/28 11:09:50;;;;;;;4.95;1.30;;;;;;;10.76;47.15;100956.72;4971876;28;20047;-79
2023/12/28 11:12:20;;;;;;;4.13;1.13;;;;;;;10.75;46.74;100967.78;4959835;28;20101;-79
2023/12/28 11:14:50;;;;;;;6.28;1.45;;;;;;;10.76;46.67;100945.78;4955016;28;20373;-78
2023/12/28 11:17:21;;;;;;;5.35;1.50;;;;;;;10.77;46.63;100963.94;4954606;28;20047;-78
2023/12/28 11:19:51;;;;;;;4.88;1.42;;;;;;;10.76;46.60;100964.94;4966642;28;20052;-78
2023/12/28 11:22:20;;;;;;;4.38;1.38;;;;;;;10.76;46.49;100959.47;4956344;28;20072;-79
2023/12/28 11:24:53;;;;;;;4.03;1.30;;;;;;;10.78;46.71;100962.06;4967080;28;20499;-78
2023/12/28 11:27:21;;;;;;;3.95;1.20;;;;;;;10.75;46.54;100945.91;4973746;28;20049;-78
2023/12/28 11:29:49;;;;;;;5.95;1.67;;;;;;;10.76;46.24;100953.97;4972533;28;20061;-62
2023/12/28 11:32:17;;;;;;;3.42;1.10;;;;;;;10.77;46.73;100943.91;4938030;28;20047;-64
2023/12/28 11:34:45;;;;;;;3.97;1.30;;;;;;;10.79;47.11;100934.56;4945619;28;20154;-79
2023/12/28 11:37:19;;;;;;;5.13;1.45;;;;;;;10.81;46.91;100938.00;4957038;28;20047;-78
2023/12/28 11:39:51;;;;;;;3.97;1.30;;;;;;;10.84;46.62;100929.53;4953990;29;20047;-78
2023/12/28 11:42:22;;;;;;;4.18;1.05;;;;;;;10.85;46.06;100931.28;4969201;28;20063;-78